createdAt,value
2017-10-21T00:02:35.416Z,59.98
2017-10-21T00:17:34.861Z,60.56
2017-10-21T00:32:33.718Z,60.78
2017-10-21T00:35:01.201Z,60.76
2017-10-21T00:37:28.752Z,60.31
2017-10-21T00:39:56.331Z,59.94
2017-10-21T00:42:23.822Z,59.61
2017-10-21T00:44:51.315Z,59.43
2017-10-21T00:47:18.877Z,59.21
2017-10-21T01:02:35.187Z,60.97
2017-10-21T01:17:34.181Z,61.60
2017-10-21T01:32:34.011Z,62.15
2017-10-21T01:47:35.485Z,62.61
2017-10-21T02:02:34.504Z,62.81
2017-10-21T02:17:34.387Z,63.82
2017-10-21T02:32:34.874Z,63.97
2017-10-21T02:47:34.780Z,64.18
2017-10-21T03:02:34.764Z,64.92
2017-10-21T03:17:34.654Z,65.05
2017-10-21T03:32:35.121Z,65.42
2017-10-21T03:47:34.989Z,65.82
2017-10-21T04:02:35.047Z,66.15
2017-10-21T04:17:35.025Z,66.53
2017-10-21T04:32:34.416Z,66.93
2017-10-21T04:47:33.811Z,67.29
2017-10-21T05:02:34.332Z,66.98
2017-10-21T05:17:34.315Z,66.37
2017-10-21T05:32:34.635Z,59.53
2017-10-21T05:47:34.729Z,51.37
2017-10-21T06:02:34.593Z,45.76
2017-10-21T06:17:36.505Z,42.99
2017-10-21T06:32:34.921Z,40.35
2017-10-21T06:47:34.883Z,38.70
2017-10-21T07:02:34.850Z,37.44
2017-10-21T07:17:34.803Z,38.35
2017-10-21T07:32:34.207Z,37.92
2017-10-21T07:47:34.166Z,37.15
2017-10-21T08:02:35.407Z,35.61
2017-10-21T08:17:34.269Z,34.19
2017-10-21T08:32:34.483Z,33.14
2017-10-21T08:47:34.435Z,33.72
2017-10-21T09:02:34.405Z,33.65
2017-10-21T09:17:34.366Z,33.20
2017-10-21T09:32:34.813Z,33.17
2017-10-21T09:47:36.784Z,32.00
2017-10-21T10:02:34.755Z,31.79
2017-10-21T10:17:34.722Z,31.13
2017-10-21T10:32:35.127Z,31.11
2017-10-21T10:47:35.061Z,31.30
2017-10-21T11:02:35.043Z,30.88
2017-10-21T11:17:35.060Z,31.01
2017-10-21T11:32:34.435Z,30.58
2017-10-21T11:47:34.883Z,30.67
2017-10-21T12:02:35.389Z,31.16
2017-10-21T12:17:34.876Z,31.47
2017-10-21T12:32:34.848Z,31.59
2017-10-21T12:47:34.769Z,31.66
2017-10-21T13:02:34.679Z,31.67
2017-10-21T13:17:34.648Z,32.00
2017-10-21T13:32:37.588Z,32.65
2017-10-21T13:47:35.561Z,33.50
2017-10-21T14:02:34.947Z,33.89
2017-10-21T14:17:34.968Z,34.46
2017-10-21T14:32:35.398Z,37.39
2017-10-21T14:47:35.333Z,39.06
2017-10-21T15:02:35.290Z,40.32
2017-10-21T15:17:35.673Z,40.67
2017-10-21T15:32:34.258Z,41.53
2017-10-21T15:47:36.606Z,42.05
2017-10-21T16:02:34.699Z,42.89
2017-10-21T16:17:34.644Z,43.12
2017-10-21T16:32:35.497Z,43.41
2017-10-21T16:47:34.962Z,43.54
2017-10-21T17:02:37.871Z,43.49
2017-10-21T17:17:34.918Z,43.46
2017-10-21T17:32:37.323Z,43.63
2017-10-21T17:47:35.398Z,44.41
2017-10-21T18:02:35.324Z,45.04
2017-10-21T18:17:35.229Z,45.79
2017-10-21T18:32:34.674Z,50.28
2017-10-21T18:47:34.704Z,48.80
2017-10-21T19:02:34.607Z,49.72
2017-10-21T19:17:34.566Z,51.01
2017-10-21T19:32:35.085Z,51.61
2017-10-21T19:47:35.020Z,52.21
2017-10-21T20:02:34.928Z,53.04
2017-10-21T20:17:35.051Z,54.29
2017-10-21T20:32:35.307Z,54.69
2017-10-21T20:47:35.360Z,55.14
2017-10-21T21:02:35.244Z,55.13
2017-10-21T21:17:35.252Z,56.21
2017-10-21T21:32:34.137Z,57.04
2017-10-21T21:47:37.305Z,58.20
2017-10-21T22:02:34.523Z,58.42
2017-10-21T22:17:34.563Z,58.98
2017-10-21T22:32:36.959Z,59.23
2017-10-21T22:47:34.950Z,59.98
2017-10-21T23:02:34.839Z,60.18
2017-10-21T23:17:34.785Z,60.00
2017-10-21T23:32:35.234Z,60.82
2017-10-21T23:47:37.154Z,61.89
